Bradley, South Dakota
Current Conditions -  °F | °C
As of 1:29 PM on Thursday 18 Dec 2014 (Local Time) from KATY Reporting Station
Overcast Overcast  
Wind Chill: 11°   Ceiling: 4800
Heat Index: 22°   Visibility: 7mi
Dew Point: 18°   Wind: 10mph
Humidity: 85%   Direction: 160°SSE
Pressure: 30.13"   Gusts: NA
Location:  45.09°N, 97.64°W
Report Text: KATY 181929Z AUTO 16009KT 7SM SCT009 OVC048 M06/M08 A3013 RMK AO2 T10561078
Loading
Personal Weather Stations






























Interactive Weather Map New forecast layout! Learn more

10-Day Weather Forecast

Advertisements
Track Severe Weather on mobile